This is the latest recevied weather packets stored in our database for station/object IW1EYZ-3. If no packets are shown the sender has not sent any weather packets the latest 10 day(s).
| Time | Temp. | Humidity | Pressure | Rain* | Wind** | Luminosity | Snow |
|---|---|---|---|---|---|---|---|
| 1777500829 | 18.89° C | 39% | 1017.6 hPa | - | - | - | - |
| 1777499628 | 18.89° C | 40% | 1017.3 hPa | - | - | - | - |
| 1777498428 | 19.44° C | 44% | 1017.2 hPa | - | - | - | - |
| 1777497228 | 19.44° C | 42% | 1017 hPa | - | - | - | - |
| 1777496027 | 20° C | 42% | 1016.8 hPa | - | - | - | - |
| 1777494827 | 20° C | 39% | 1016.6 hPa | - | - | - | - |
| 1777493627 | 20° C | 33% | 1016.4 hPa | - | - | - | - |
| 1777492426 | 20° C | 31% | 1016.3 hPa | - | - | - | - |
| 1777491226 | 20° C | 33% | 1016.2 hPa | - | - | - | - |
| 1777490026 | 20° C | 32% | 1016.1 hPa | - | - | - | - |
| 1777488825 | 20.56° C | 34% | 1016 hPa | - | - | - | - |
| 1777487625 | 20.56° C | 34% | 1015.9 hPa | - | - | - | - |
| 1777486425 | 21.11° C | 32% | 1015.8 hPa | - | - | - | - |
| 1777485225 | 21.67° C | 24% | 1015.6 hPa | - | - | - | - |
| 1777484024 | 22.22° C | 29% | 1015.6 hPa | - | - | - | - |
| 1777482824 | 22.78° C | 22% | 1015.6 hPa | - | - | - | - |
| 1777481623 | 23.33° C | 22% | 1015.6 hPa | - | - | - | - |
| 1777480423 | 27.78° C | 23% | 1015.5 hPa | - | - | - | - |
| 1777479223 | 27.78° C | 23% | 1015.4 hPa | - | - | - | - |
| 1777478022 | 22.78° C | 31% | 1015.8 hPa | - | - | - | - |
| 1777476822 | 29.44° C | 22% | 1015.7 hPa | - | - | - | - |
| 1777475622 | 30° C | 21% | 1015.9 hPa | - | - | - | - |
| 1777474422 | 30.56° C | 21% | 1016 hPa | - | - | - | - |
| 1777473221 | 30° C | 23% | 1016.2 hPa | - | - | - | - |
| 1777472021 | 31.67° C | 23% | 1016.6 hPa | - | - | - | - |
* Rain since midnight (hover to see other rain measurements)
** Current wind speed in m/s (hover to see current wind gust speed)